Time;durP1;ratioP1;P1;durP2;ratioP2;P2;SDS_P1;SDS_P2;PMS_P1;PMS_P2;Temp;Humidity;BMP_temperature;BMP_pressure;BME280_temperature;BME280_humidity;BME280_pressure;Samples;Min_cycle;Max_cycle;Signal;HPM_P1;HPM_P2
2022/12/03 00:01:04;;;;;;;17.55;7.53;;;;;;;;;;4992765;28;20073;-94
2022/12/03 00:03:34;;;;;;;19.30;7.93;;;;;;;;;;5005995;28;20046;-93
2022/12/03 00:06:04;;;;;;;20.77;7.90;;;;;;;;;;4989358;28;20046;-93
2022/12/03 00:28:07;;;;;;;19.70;7.40;;;;;;;;;;5793465;22;20050;-83
2022/12/03 00:31:34;;;;;;;18.27;7.50;;;;;;;;;;4973848;28;20042;-83
2022/12/03 00:36:08;;;;;;;16.58;6.88;;;;;;;;;;4939504;28;20051;-83
2022/12/03 00:45:26;;;;;;;17.05;7.38;;;;;;;;;;4940314;28;20467;-85
2022/12/03 01:03:09;;;;;;;28.02;8.18;;;;;;;;;;4881772;29;20072;-87
2022/12/03 01:07:47;;;;;;;23.10;7.63;;;;;;;;;;4896315;29;20056;-87
2022/12/03 01:12:17;;;;;;;20.05;7.30;;;;;;;;;;4874545;29;20064;-89
2022/12/03 01:26:42;;;;;;;22.38;8.40;;;;;;;;;;4821404;29;20045;-86
2022/12/03 01:35:58;;;;;;;18.50;7.57;;;;;;;;;;4848579;29;20052;-87
2022/12/03 01:39:52;;;;;;;19.48;7.40;;;;;;;;;;4847012;29;20053;-87
2022/12/03 01:43:57;;;;;;;20.13;7.32;;;;;;;;;;4844472;29;20068;-86
2022/12/03 01:48:28;;;;;;;23.90;8.95;;;;;;;;;;4882760;29;20049;-86
2022/12/03 01:53:01;;;;;;;18.88;6.90;;;;;;;;;;4826161;29;21334;-86
2022/12/03 01:57:22;;;;;;;21.27;7.53;;;;;;;;;;4833734;29;20061;-87
2022/12/03 02:01:10;;;;;;;28.17;9.15;;;;;;;;;;4856149;29;20076;-87
2022/12/03 02:05:53;;;;;;;19.50;7.40;;;;;;;;;;4836947;29;20180;-86
2022/12/03 02:10:18;;;;;;;19.58;8.00;;;;;;;;;;4829436;29;20054;-86
2022/12/03 02:14:26;;;;;;;23.48;8.77;;;;;;;;;;4774339;29;20451;-86
2022/12/03 02:18:49;;;;;;;19.23;6.43;;;;;;;;;;4776777;29;20107;-86
2022/12/03 02:22:50;;;;;;;17.23;5.80;;;;;;;;;;4802293;29;20046;-87
2022/12/03 02:27:08;;;;;;;27.58;9.93;;;;;;;;;;4849927;29;20145;-86
2022/12/03 02:31:31;;;;;;;22.08;8.30;;;;;;;;;;4856683;29;20056;-86
2022/12/03 02:35:43;;;;;;;18.60;7.45;;;;;;;;;;4869415;29;20135;-86
2022/12/03 02:44:46;;;;;;;18.23;7.13;;;;;;;;;;4883250;29;20452;-86
2022/12/03 02:48:01;;;;;;;26.92;9.57;;;;;;;;;;4830962;29;20062;-84
2022/12/03 02:50:52;;;;;;;27.10;9.32;;;;;;;;;;4829605;29;20430;-85
2022/12/03 02:53:41;;;;;;;11.75;4.78;;;;;;;;;;4830051;29;20459;-85
2022/12/03 02:56:26;;;;;;;19.10;7.32;;;;;;;;;;4814303;29;20222;-85
2022/12/03 03:00:39;;;;;;;24.77;8.60;;;;;;;;;;4824979;29;20053;-86
2022/12/03 03:04:30;;;;;;;26.02;7.38;;;;;;;;;;4828957;29;20114;-85
2022/12/03 03:08:30;;;;;;;24.60;8.45;;;;;;;;;;4822084;29;20050;-84
2022/12/03 03:12:36;;;;;;;14.13;5.97;;;;;;;;;;4834383;29;20056;-84
2022/12/03 03:15:18;;;;;;;22.92;9.70;;;;;;;;;;4821146;29;20047;-85
2022/12/03 03:19:33;;;;;;;23.65;9.18;;;;;;;;;;4891316;29;20048;-84
2022/12/03 03:23:20;;;;;;;24.80;9.02;;;;;;;;;;4910829;29;20052;-85
2022/12/03 03:27:27;;;;;;;20.40;9.25;;;;;;;;;;4910438;29;20127;-86
2022/12/03 03:31:45;;;;;;;18.58;7.45;;;;;;;;;;4815951;29;20050;-85
2022/12/03 03:35:03;;;;;;;20.55;7.85;;;;;;;;;;4818243;29;20051;-85
2022/12/03 03:39:09;;;;;;;26.98;9.18;;;;;;;;;;4815401;29;20178;-84
2022/12/03 03:42:56;;;;;;;21.27;6.68;;;;;;;;;;4808651;29;20346;-85
2022/12/03 03:45:38;;;;;;;22.58;8.60;;;;;;;;;;4816627;29;20070;-85
2022/12/03 03:48:47;;;;;;;29.45;10.30;;;;;;;;;;4818814;29;20067;-86
2022/12/03 03:52:21;;;;;;;22.45;7.07;;;;;;;;;;4816733;29;20254;-85
2022/12/03 03:54:52;;;;;;;21.77;7.90;;;;;;;;;;4818138;29;20058;-85
2022/12/03 03:57:26;;;;;;;26.63;9.50;;;;;;;;;;4819959;29;20058;-85
2022/12/03 04:00:18;;;;;;;22.92;6.75;;;;;;;;;;4825759;29;20525;-85
2022/12/03 04:03:00;;;;;;;24.20;9.07;;;;;;;;;;4872156;29;20563;-85
2022/12/03 04:05:42;;;;;;;22.10;8.55;;;;;;;;;;4888432;28;20501;-85
2022/12/03 04:08:28;;;;;;;27.70;8.98;;;;;;;;;;4971449;28;20053;-85
2022/12/03 04:14:24;;;;;;;17.90;8.18;;;;;;;;;;4981386;28;20050;-85
2022/12/03 04:17:06;;;;;;;27.83;9.15;;;;;;;;;;4979047;28;20097;-85
2022/12/03 04:29:53;;;;;;;23.48;9.35;;;;;;;;;;4965285;28;20060;-85
2022/12/03 04:35:50;;;;;;;23.42;8.95;;;;;;;;;;4908976;29;20585;-85
2022/12/03 04:38:20;;;;;;;19.02;7.30;;;;;;;;;;4907188;29;20118;-86
2022/12/03 04:42:47;;;;;;;21.05;9.23;;;;;;;;;;4863807;29;20053;-86
2022/12/03 04:52:50;;;;;;;15.43;5.70;;;;;;;;;;4750528;30;20075;-86
2022/12/03 04:55:56;;;;;;;22.80;8.73;;;;;;;;;;4747120;30;20110;-85
2022/12/03 04:59:42;;;;;;;23.85;8.25;;;;;;;;;;4768079;30;20058;-86
2022/12/03 05:02:24;;;;;;;25.63;8.43;;;;;;;;;;4745554;29;20055;-86
2022/12/03 05:05:30;;;;;;;29.17;9.30;;;;;;;;;;4788239;29;20839;-85
2022/12/03 05:08:12;;;;;;;23.33;8.18;;;;;;;;;;4782370;29;20117;-85
2022/12/03 05:11:08;;;;;;;26.48;8.15;;;;;;;;;;4785393;29;20059;-85
2022/12/03 05:13:56;;;;;;;20.58;7.20;;;;;;;;;;4827217;29;20147;-85
2022/12/03 05:17:35;;;;;;;27.65;8.57;;;;;;;;;;4800365;29;20510;-85
2022/12/03 05:20:40;;;;;;;29.35;9.20;;;;;;;;;;4798057;29;20058;-85
2022/12/03 05:23:22;;;;;;;23.05;7.82;;;;;;;;;;4830758;29;20062;-85
2022/12/03 05:26:04;;;;;;;23.10;8.57;;;;;;;;;;4827385;29;20109;-86
2022/12/03 05:28:46;;;;;;;25.00;9.23;;;;;;;;;;4844978;29;20195;-85
2022/12/03 05:31:52;;;;;;;22.95;8.32;;;;;;;;;;4844530;29;20064;-85
2022/12/03 05:35:18;;;;;;;23.02;8.45;;;;;;;;;;4859590;29;20571;-85
2022/12/03 05:38:06;;;;;;;25.52;9.35;;;;;;;;;;4866108;29;20071;-85
2022/12/03 05:44:12;;;;;;;21.10;8.05;;;;;;;;;;4894557;29;20065;-85
2022/12/03 05:48:41;;;;;;;23.48;8.57;;;;;;;;;;4899597;29;20047;-85
2022/12/03 05:53:03;;;;;;;23.75;7.43;;;;;;;;;;4928636;29;20099;-85
